Time;durP1;ratioP1;P1;durP2;ratioP2;P2;SDS_P1;SDS_P2;PMS_P1;PMS_P2;Temp;Humidity;BMP_temperature;BMP_pressure;BME280_temperature;BME280_humidity;BME280_pressure;Samples;Min_cycle;Max_cycle;Signal;HPM_P1;HPM_P2
2024/01/25 00:01:25;;;;;;;15.37;3.50;;;14.40;57.10;;;;;;5042357;28;20180;-59
2024/01/25 00:03:51;;;;;;;14.63;4.23;;;14.40;57.50;;;;;;5040680;28;20204;-60
2024/01/25 00:06:16;;;;;;;13.30;3.90;;;14.40;57.80;;;;;;5039830;28;20228;-60
2024/01/25 00:08:42;;;;;;;18.07;4.17;;;14.30;58.50;;;;;;5041124;28;20192;-60
2024/01/25 00:11:09;;;;;;;15.47;3.00;;;14.20;58.00;;;;;;5045853;28;20184;-61
2024/01/25 00:13:34;;;;;;;14.80;3.77;;;14.20;58.20;;;;;;5044069;28;20777;-60
2024/01/25 00:16:00;;;;;;;14.63;3.40;;;14.30;58.30;;;;;;5040252;28;20511;-60
2024/01/25 00:18:26;;;;;;;17.80;4.80;;;14.40;58.50;;;;;;5040959;28;20180;-60
2024/01/25 00:20:52;;;;;;;12.07;3.57;;;14.40;58.50;;;;;;5044851;28;20234;-58
2024/01/25 00:23:17;;;;;;;11.73;3.73;;;14.60;58.40;;;;;;5045248;28;20208;-59
2024/01/25 00:25:43;;;;;;;13.87;3.83;;;14.50;58.30;;;;;;5044381;28;20482;-60
2024/01/25 00:28:08;;;;;;;12.87;3.97;;;14.60;58.40;;;;;;5041546;28;20271;-60
2024/01/25 00:30:34;;;;;;;9.80;2.93;;;14.70;58.20;;;;;;5045150;28;22120;-61
2024/01/25 00:33:01;;;;;;;13.90;3.43;;;14.70;58.10;;;;;;5043500;28;20207;-59
2024/01/25 00:35:27;;;;;;;23.73;5.10;;;14.80;57.90;;;;;;5047701;28;20648;-61
2024/01/25 00:37:53;;;;;;;21.10;7.07;;;14.80;58.00;;;;;;5041730;28;20456;-61
2024/01/25 00:40:19;;;;;;;12.10;4.53;;;14.70;58.10;;;;;;5046385;28;20493;-60
2024/01/25 00:42:52;;;;;;;19.23;5.10;;;14.60;58.30;;;;;;5040057;28;20195;-60
2024/01/25 00:45:19;;;;;;;17.23;3.07;;;14.40;58.80;;;;;;5044546;28;20830;-60
2024/01/25 00:47:45;;;;;;;12.77;4.13;;;14.50;58.70;;;;;;5042842;28;20479;-61
2024/01/25 00:50:11;;;;;;;13.47;3.53;;;14.50;58.90;;;;;;5046196;28;20930;-61
2024/01/25 00:52:37;;;;;;;10.73;3.47;;;14.60;58.90;;;;;;5044018;28;20455;-59
2024/01/25 00:55:03;;;;;;;16.07;3.80;;;14.70;58.70;;;;;;5044455;28;20462;-60
2024/01/25 00:57:29;;;;;;;18.10;4.27;;;14.70;58.70;;;;;;5043930;28;20205;-59
2024/01/25 00:59:55;;;;;;;15.33;3.80;;;14.60;58.80;;;;;;5044485;28;20957;-60
2024/01/25 01:02:22;;;;;;;15.47;3.60;;;14.80;58.60;;;;;;5046224;28;20929;-60
2024/01/25 01:04:48;;;;;;;12.60;4.37;;;15.00;58.40;;;;;;5047056;28;20424;-61
2024/01/25 01:07:14;;;;;;;11.67;2.87;;;15.10;58.00;;;;;;5046885;28;20467;-60
2024/01/25 01:09:40;;;;;;;16.37;3.90;;;15.00;58.20;;;;;;5040401;28;21215;-60
2024/01/25 01:12:06;;;;;;;13.10;3.83;;;15.10;58.10;;;;;;5045242;28;20460;-60
2024/01/25 01:14:32;;;;;;;17.23;4.60;;;14.80;58.50;;;;;;5046704;28;20210;-59
2024/01/25 01:16:57;;;;;;;13.70;3.50;;;14.80;58.60;;;;;;5047561;28;20442;-60
2024/01/25 01:19:23;;;;;;;20.33;5.47;;;14.60;59.00;;;;;;5049458;28;20188;-60
2024/01/25 01:21:48;;;;;;;9.60;3.70;;;14.60;59.20;;;;;;5048927;28;20211;-60
2024/01/25 01:24:14;;;;;;;11.50;3.80;;;14.30;59.80;;;;;;5043547;28;20193;-60
2024/01/25 01:26:41;;;;;;;13.50;3.53;;;14.40;60.20;;;;;;5046015;28;20220;-60
2024/01/25 01:29:08;;;;;;;15.40;3.13;;;14.50;60.20;;;;;;5043265;28;20181;-60
2024/01/25 01:31:33;;;;;;;17.23;3.73;;;14.50;60.10;;;;;;5046977;28;20997;-61
2024/01/25 01:34:00;;;;;;;17.63;4.10;;;14.30;60.60;;;;;;5047001;28;20407;-60
2024/01/25 01:36:26;;;;;;;19.23;4.13;;;14.10;61.40;;;;;;5047935;28;20661;-61
2024/01/25 01:38:51;;;;;;;14.93;3.87;;;14.10;61.40;;;;;;5042751;28;20443;-60
2024/01/25 01:41:17;;;;;;;10.17;3.27;;;14.30;61.10;;;;;;5043624;28;20445;-60
2024/01/25 01:43:42;;;;;;;17.33;3.87;;;14.30;60.90;;;;;;5044030;28;20191;-60
2024/01/25 01:46:15;;;;;;;13.90;3.23;;;14.20;61.40;;;;;;5045642;28;20247;-60
2024/01/25 01:48:41;;;;;;;15.73;4.37;;;14.30;61.20;;;;;;5042699;28;21073;-60
2024/01/25 01:51:08;;;;;;;15.30;3.67;;;14.40;60.80;;;;;;5039043;28;20509;-60
2024/01/25 01:53:35;;;;;;;14.27;4.03;;;14.40;60.60;;;;;;5043226;28;20436;-60
2024/01/25 01:56:01;;;;;;;17.30;3.90;;;14.50;60.70;;;;;;5040824;28;20472;-60
2024/01/25 01:58:27;;;;;;;19.90;4.43;;;14.50;60.40;;;;;;5046770;28;20435;-59
2024/01/25 02:00:55;;;;;;;10.10;2.97;;;14.20;60.50;;;;;;5044629;28;20212;-60
2024/01/25 02:03:21;;;;;;;13.17;3.83;;;14.40;60.80;;;;;;5043848;28;20429;-61
2024/01/25 02:05:47;;;;;;;15.13;3.77;;;14.30;60.30;;;;;;5042037;28;20494;-60
2024/01/25 02:08:13;;;;;;;12.40;3.83;;;14.30;60.40;;;;;;5046467;28;20431;-60
2024/01/25 02:10:38;;;;;;;13.43;3.60;;;14.00;61.10;;;;;;5042024;28;20427;-61
2024/01/25 02:13:04;;;;;;;8.60;3.30;;;14.20;61.10;;;;;;5044460;28;20444;-60
2024/01/25 02:15:30;;;;;;;18.63;3.47;;;14.30;60.90;;;;;;5042111;28;20193;-60
2024/01/25 02:17:56;;;;;;;12.27;2.93;;;14.30;61.10;;;;;;5044392;28;20203;-61
2024/01/25 02:20:21;;;;;;;16.70;3.10;;;14.30;60.80;;;;;;5041537;28;20612;-60
2024/01/25 02:22:47;;;;;;;12.90;2.77;;;14.20;60.60;;;;;;5044227;28;20431;-60
2024/01/25 02:25:12;;;;;;;10.67;3.40;;;14.40;60.80;;;;;;5043876;28;20236;-60
2024/01/25 02:27:38;;;;;;;13.80;3.53;;;14.50;60.40;;;;;;5043760;28;20242;-60
2024/01/25 02:30:07;;;;;;;18.77;4.50;;;14.50;59.90;;;;;;5050088;28;20185;-61
2024/01/25 02:32:33;;;;;;;14.20;3.63;;;14.50;59.90;;;;;;5043769;28;20819;-60
2024/01/25 02:35:00;;;;;;;9.93;3.20;;;14.40;59.90;;;;;;5041211;28;20439;-60
2024/01/25 02:37:25;;;;;;;14.93;5.50;;;14.40;59.60;;;;;;5047539;28;20450;-61
2024/01/25 02:39:52;;;;;;;12.97;3.17;;;14.30;59.90;;;;;;5048005;28;20537;-61
2024/01/25 02:42:17;;;;;;;12.30;3.70;;;14.40;60.30;;;;;;5036151;28;20191;-60
2024/01/25 02:44:43;;;;;;;22.37;4.03;;;14.30;60.40;;;;;;5037794;28;20455;-59
2024/01/25 02:47:09;;;;;;;17.77;4.20;;;14.40;60.30;;;;;;5039846;28;20215;-59
2024/01/25 02:49:35;;;;;;;14.53;4.20;;;14.50;60.10;;;;;;5045338;28;20829;-59
2024/01/25 02:52:01;;;;;;;12.27;3.20;;;14.40;60.20;;;;;;5042600;28;20196;-60
2024/01/25 02:54:27;;;;;;;16.67;3.23;;;14.30;60.20;;;;;;5041761;28;20193;-61
2024/01/25 02:56:53;;;;;;;15.57;3.53;;;14.30;60.40;;;;;;5041341;28;20825;-60
2024/01/25 02:59:18;;;;;;;9.60;3.53;;;14.50;60.30;;;;;;5043727;28;20454;-60
2024/01/25 03:01:44;;;;;;;12.23;3.47;;;14.40;59.90;;;;;;5048534;28;20270;-60
2024/01/25 03:04:10;;;;;;;16.03;3.50;;;14.30;60.00;;;;;;5042431;28;20263;-61
2024/01/25 03:06:36;;;;;;;13.97;3.23;;;14.20;60.40;;;;;;5049257;28;20499;-60
2024/01/25 03:09:04;;;;;;;21.63;3.43;;;14.20;60.30;;;;;;5046954;28;20185;-60
2024/01/25 03:11:30;;;;;;;9.60;3.00;;;14.50;60.00;;;;;;5047836;28;20663;-60
2024/01/25 03:13:56;;;;;;;15.27;3.33;;;14.60;59.30;;;;;;5043462;28;20450;-60
2024/01/25 03:16:21;;;;;;;13.67;3.50;;;14.70;59.30;;;;;;5044618;28;20541;-60
2024/01/25 03:18:47;;;;;;;15.00;5.23;;;14.70;59.00;;;;;;5044337;28;20569;-60
2024/01/25 03:21:13;;;;;;;12.93;3.50;;;14.90;58.80;;;;;;5043841;28;20196;-60
2024/01/25 03:23:38;;;;;;;17.03;3.77;;;15.00;58.60;;;;;;5041086;28;20242;-61
2024/01/25 03:26:04;;;;;;;13.20;3.57;;;15.00;58.40;;;;;;5042002;28;20738;-60
2024/01/25 03:28:30;;;;;;;11.33;3.00;;;14.90;58.50;;;;;;5042757;28;20185;-60
2024/01/25 03:30:55;;;;;;;11.53;3.40;;;14.90;58.40;;;;;;5046878;28;20208;-60
2024/01/25 03:33:21;;;;;;;16.37;3.70;;;15.00;58.40;;;;;;5046113;28;20176;-60
2024/01/25 03:35:46;;;;;;;16.73;4.17;;;15.00;58.40;;;;;;5040922;28;20208;-60
2024/01/25 03:38:13;;;;;;;10.67;3.20;;;14.90;58.30;;;;;;5040406;28;20184;-60
2024/01/25 03:40:39;;;;;;;17.00;3.73;;;14.90;58.30;;;;;;5042422;28;20208;-60
2024/01/25 03:43:05;;;;;;;12.00;3.97;;;14.90;58.40;;;;;;5039330;28;20484;-60
2024/01/25 03:45:32;;;;;;;12.57;3.60;;;15.00;58.40;;;;;;5039639;28;20217;-60
2024/01/25 03:47:58;;;;;;;17.57;3.77;;;15.00;58.40;;;;;;5037278;28;20710;-58
2024/01/25 03:50:24;;;;;;;14.53;3.30;;;14.90;58.50;;;;;;5040029;28;20443;-60
2024/01/25 03:52:49;;;;;;;9.77;3.37;;;14.70;58.90;;;;;;5040907;28;20194;-61
2024/01/25 03:55:15;;;;;;;14.70;4.37;;;14.90;58.70;;;;;;5042352;28;20199;-60
2024/01/25 03:57:41;;;;;;;16.13;4.23;;;14.70;58.70;;;;;;5042153;28;20200;-60
2024/01/25 04:00:08;;;;;;;15.63;4.07;;;14.70;59.10;;;;;;5040560;28;20683;-59
2024/01/25 04:02:33;;;;;;;18.60;5.40;;;14.50;59.40;;;;;;5041557;28;20483;-60
2024/01/25 04:04:59;;;;;;;12.27;2.70;;;14.40;59.40;;;;;;5041544;28;20505;-60
2024/01/25 04:07:24;;;;;;;10.77;3.50;;;14.40;59.80;;;;;;5039451;28;20208;-60
2024/01/25 04:09:50;;;;;;;12.83;3.47;;;14.40;59.70;;;;;;5041790;28;20181;-60
2024/01/25 04:12:16;;;;;;;20.87;5.37;;;14.40;59.70;;;;;;5041700;28;20192;-60
2024/01/25 04:14:41;;;;;;;15.97;3.67;;;14.30;59.70;;;;;;5044503;28;20180;-60
2024/01/25 04:17:07;;;;;;;14.33;4.50;;;14.30;59.40;;;;;;5039570;28;20217;-60
2024/01/25 04:19:33;;;;;;;16.30;3.40;;;14.40;59.20;;;;;;5046080;28;20537;-60
2024/01/25 04:21:58;;;;;;;18.43;4.30;;;14.40;59.30;;;;;;5033770;28;20181;-60
2024/01/25 04:24:24;;;;;;;16.90;3.70;;;14.20;59.20;;;;;;5038706;28;20212;-60
2024/01/25 04:26:50;;;;;;;11.80;5.70;;;14.00;59.90;;;;;;5040978;28;20299;-59
2024/01/25 04:29:16;;;;;;;17.10;3.47;;;13.90;60.50;;;;;;5039721;28;20554;-61
2024/01/25 04:31:44;;;;;;;13.40;4.00;;;13.90;60.40;;;;;;5042129;28;20188;-60
2024/01/25 04:34:10;;;;;;;11.83;2.90;;;14.00;60.40;;;;;;5036340;28;20517;-60
2024/01/25 04:36:36;;;;;;;27.47;6.67;;;14.00;60.00;;;;;;5037121;28;20466;-60
2024/01/25 04:39:02;;;;;;;11.27;3.57;;;14.00;60.10;;;;;;5037558;28;20577;-60
2024/01/25 04:41:27;;;;;;;17.40;3.30;;;14.10;59.60;;;;;;5039644;28;20177;-60
2024/01/25 04:43:53;;;;;;;19.87;4.20;;;14.10;59.30;;;;;;5040217;28;20208;-60
2024/01/25 04:46:18;;;;;;;12.70;3.47;;;14.10;59.40;;;;;;5038322;28;20231;-58
2024/01/25 04:48:45;;;;;;;17.23;4.30;;;14.00;59.50;;;;;;5039264;28;20197;-59
2024/01/25 04:51:16;;;;;;;16.07;5.20;;;13.80;59.50;;;;;;5040734;28;20189;-59
2024/01/25 04:53:42;;;;;;;19.27;3.60;;;13.90;59.90;;;;;;5039293;28;20524;-60
2024/01/25 04:56:07;;;;;;;20.00;3.87;;;13.80;60.00;;;;;;5037630;28;21051;-60
2024/01/25 04:58:33;;;;;;;14.87;3.77;;;14.00;59.70;;;;;;5046387;28;20189;-60
2024/01/25 05:00:58;;;;;;;16.97;4.13;;;13.90;59.50;;;;;;5040143;28;20267;-61
2024/01/25 05:03:24;;;;;;;19.00;4.07;;;14.10;59.20;;;;;;5044387;28;20188;-60
2024/01/25 05:05:49;;;;;;;11.07;3.37;;;14.10;58.80;;;;;;5043049;28;20278;-58
2024/01/25 05:08:15;;;;;;;13.47;3.10;;;14.00;58.80;;;;;;5046607;28;20183;-60
2024/01/25 05:10:41;;;;;;;16.20;4.00;;;13.90;58.90;;;;;;5044853;28;20180;-60
2024/01/25 05:13:07;;;;;;;10.43;3.10;;;14.00;58.70;;;;;;5047563;28;20184;-60
2024/01/25 05:15:33;;;;;;;10.83;4.27;;;14.00;58.50;;;;;;5042001;28;20185;-58
2024/01/25 05:17:58;;;;;;;16.33;4.00;;;14.20;58.10;;;;;;5050031;28;20426;-61
2024/01/25 05:20:31;;;;;;;13.37;4.20;;;14.00;57.90;;;;;;5047729;28;20177;-60
2024/01/25 05:22:57;;;;;;;13.20;3.37;;;14.10;58.00;;;;;;5047767;28;20521;-58
2024/01/25 05:25:22;;;;;;;11.10;3.20;;;14.30;57.90;;;;;;5048773;28;20509;-61
2024/01/25 05:27:48;;;;;;;11.43;4.50;;;14.40;57.00;;;;;;5039902;28;20184;-60
2024/01/25 05:30:14;;;;;;;14.47;3.93;;;14.50;57.10;;;;;;5044708;28;20668;-60
2024/01/25 05:32:39;;;;;;;14.40;4.80;;;14.60;56.50;;;;;;5047545;28;20276;-60
2024/01/25 05:35:06;;;;;;;16.17;3.63;;;14.50;56.40;;;;;;5051076;28;20180;-60
2024/01/25 05:37:32;;;;;;;13.97;4.37;;;14.50;56.40;;;;;;5050242;28;20248;-60
2024/01/25 05:39:57;;;;;;;15.70;4.37;;;14.50;56.50;;;;;;5043127;28;20451;-60
2024/01/25 05:42:23;;;;;;;15.50;5.30;;;14.50;56.50;;;;;;5043899;28;20446;-60
2024/01/25 05:44:49;;;;;;;13.67;4.20;;;14.60;56.30;;;;;;5038171;28;20283;-61
2024/01/25 05:47:14;;;;;;;13.87;3.70;;;14.60;55.90;;;;;;5041503;28;20276;-60
2024/01/25 05:49:40;;;;;;;14.80;3.37;;;14.50;55.70;;;;;;5041852;28;20192;-60
2024/01/25 05:52:05;;;;;;;10.30;3.17;;;14.40;56.20;;;;;;5041432;28;20185;-59
2024/01/25 05:54:31;;;;;;;14.87;3.17;;;14.50;56.10;;;;;;5042796;28;20196;-60
2024/01/25 05:56:56;;;;;;;11.80;4.10;;;14.60;56.00;;;;;;5041857;28;20209;-58
2024/01/25 05:59:22;;;;;;;15.00;3.90;;;14.70;55.80;;;;;;5042297;28;20196;-60
2024/01/25 06:01:48;;;;;;;13.33;4.60;;;14.80;55.60;;;;;;5042666;28;20272;-59
2024/01/25 06:04:13;;;;;;;16.03;3.93;;;14.80;55.50;;;;;;5042552;28;20204;-60
2024/01/25 06:06:39;;;;;;;13.63;4.17;;;14.90;55.20;;;;;;5039348;28;20243;-60
2024/01/25 06:09:05;;;;;;;12.70;4.03;;;14.90;55.50;;;;;;5040151;28;20196;-59
2024/01/25 06:11:33;;;;;;;7.70;3.43;;;14.90;55.00;;;;;;5048751;28;20217;-60
2024/01/25 06:13:58;;;;;;;14.77;3.50;;;14.80;54.80;;;;;;5045358;28;20530;-60
2024/01/25 06:16:24;;;;;;;15.77;4.33;;;14.80;55.00;;;;;;5040848;28;21100;-58
2024/01/25 06:18:49;;;;;;;14.07;3.80;;;14.80;54.90;;;;;;5046624;28;20227;-61
2024/01/25 06:21:15;;;;;;;14.00;4.17;;;14.80;54.70;;;;;;5047054;28;20648;-60
2024/01/25 06:23:40;;;;;;;10.40;3.53;;;14.80;54.60;;;;;;5041172;28;20189;-60
2024/01/25 06:26:06;;;;;;;19.70;6.67;;;14.80;54.60;;;;;;5040373;28;20220;-59
2024/01/25 06:28:32;;;;;;;21.80;4.33;;;14.80;54.70;;;;;;5047551;28;20177;-60
2024/01/25 06:30:57;;;;;;;16.90;4.33;;;14.80;54.60;;;;;;5048013;28;20607;-60
2024/01/25 06:33:23;;;;;;;13.13;3.70;;;14.80;54.50;;;;;;5038172;28;20187;-60
2024/01/25 06:35:48;;;;;;;14.87;4.10;;;14.90;54.40;;;;;;5047430;28;20277;-60
2024/01/25 06:38:14;;;;;;;10.63;3.77;;;14.90;54.50;;;;;;5043590;28;20180;-60
2024/01/25 06:40:39;;;;;;;14.60;3.90;;;14.80;54.20;;;;;;5042121;28;20188;-60
2024/01/25 06:43:05;;;;;;;14.97;4.67;;;14.80;54.20;;;;;;5043649;28;20177;-60
2024/01/25 06:45:30;;;;;;;19.27;4.87;;;14.80;54.20;;;;;;5045058;28;20236;-60
2024/01/25 06:47:56;;;;;;;14.43;4.20;;;14.90;54.10;;;;;;5039660;28;20216;-60
2024/01/25 06:50:22;;;;;;;10.93;3.67;;;14.90;53.90;;;;;;5046930;28;20306;-60
2024/01/25 06:52:48;;;;;;;15.23;5.40;;;14.90;53.70;;;;;;5042016;28;20647;-60
2024/01/25 06:55:13;;;;;;;15.00;4.93;;;14.90;53.40;;;;;;5035448;28;20200;-60
2024/01/25 06:57:39;;;;;;;18.50;5.20;;;14.90;53.10;;;;;;5042828;28;20519;-60
2024/01/25 07:00:06;;;;;;;14.50;3.80;;;14.80;53.00;;;;;;5044747;28;20676;-60
2024/01/25 07:02:32;;;;;;;15.00;4.13;;;14.70;53.20;;;;;;5042920;28;20431;-60
2024/01/25 07:04:58;;;;;;;12.07;3.27;;;14.70;53.30;;;;;;5048016;28;20435;-60
2024/01/25 07:07:23;;;;;;;10.97;3.63;;;14.70;53.40;;;;;;5043110;28;20451;-60
2024/01/25 07:09:49;;;;;;;15.83;3.70;;;14.70;53.40;;;;;;5042249;28;20644;-59
2024/01/25 07:12:14;;;;;;;13.37;3.77;;;14.60;53.20;;;;;;5045192;28;20188;-59
2024/01/25 07:14:40;;;;;;;12.63;3.10;;;14.60;53.50;;;;;;5042383;28;20275;-60
2024/01/25 07:17:05;;;;;;;11.43;3.80;;;14.50;53.40;;;;;;5031918;28;20209;-61
2024/01/25 07:19:31;;;;;;;16.67;4.27;;;14.50;53.50;;;;;;5047772;28;20177;-60
2024/01/25 07:21:57;;;;;;;13.10;3.73;;;14.40;53.60;;;;;;5039553;28;20222;-58
2024/01/25 07:24:22;;;;;;;21.83;3.93;;;14.40;53.80;;;;;;5038019;28;20200;-59
2024/01/25 07:26:48;;;;;;;17.60;4.10;;;14.40;54.00;;;;;;5039066;28;20311;-60
2024/01/25 07:29:13;;;;;;;16.93;3.80;;;14.40;54.20;;;;;;5045614;28;20180;-60
2024/01/25 07:31:39;;;;;;;10.70;3.70;;;14.40;54.40;;;;;;5042941;28;20191;-59
2024/01/25 07:34:04;;;;;;;11.43;3.13;;;14.50;54.60;;;;;;5044761;28;20184;-60
2024/01/25 07:36:30;;;;;;;11.67;3.30;;;14.60;54.50;;;;;;5044225;28;20208;-60
2024/01/25 07:38:56;;;;;;;16.40;4.03;;;14.80;54.00;;;;;;5039937;28;20189;-60
2024/01/25 07:41:22;;;;;;;7.60;2.80;;;15.10;53.20;;;;;;5043481;28;20174;-60
2024/01/25 07:43:47;;;;;;;14.57;4.20;;;15.30;52.50;;;;;;5036582;28;20474;-61
2024/01/25 07:46:14;;;;;;;12.53;4.27;;;15.50;51.80;;;;;;5039145;28;20220;-59
2024/01/25 07:48:40;;;;;;;12.23;4.40;;;15.70;51.30;;;;;;5035013;28;20347;-60
2024/01/25 07:51:12;;;;;;;10.87;3.97;;;15.90;50.90;;;;;;5042375;28;20531;-60
2024/01/25 07:53:37;;;;;;;12.50;5.03;;;16.10;50.90;;;;;;5044505;28;20203;-60
2024/01/25 07:56:03;;;;;;;23.93;5.70;;;16.20;50.90;;;;;;5043149;28;20470;-60
2024/01/25 07:58:30;;;;;;;13.93;4.50;;;16.30;50.80;;;;;;5043022;28;20185;-61
2024/01/25 08:00:56;;;;;;;15.83;4.13;;;16.40;50.70;;;;;;5043107;28;20211;-60
2024/01/25 08:03:21;;;;;;;14.57;4.73;;;16.50;50.70;;;;;;5042845;28;20446;-59
2024/01/25 08:05:47;;;;;;;17.40;5.07;;;16.50;51.00;;;;;;5037390;28;20227;-60
2024/01/25 08:08:12;;;;;;;18.53;4.80;;;16.60;50.00;;;;;;5039026;28;20184;-61
2024/01/25 08:10:38;;;;;;;13.90;4.83;;;16.70;49.80;;;;;;5048764;28;20196;-61
2024/01/25 08:13:04;;;;;;;12.60;4.90;;;16.70;49.90;;;;;;5040979;28;20184;-60
2024/01/25 08:15:29;;;;;;;16.70;4.83;;;16.70;50.10;;;;;;5035023;28;20688;-60
2024/01/25 08:17:55;;;;;;;17.07;3.70;;;16.60;50.40;;;;;;5040169;28;20181;-61
2024/01/25 08:20:20;;;;;;;16.60;4.00;;;16.60;50.60;;;;;;5043952;28;20209;-61
2024/01/25 08:22:46;;;;;;;11.50;3.20;;;16.50;50.80;;;;;;5036854;28;20263;-60
2024/01/25 08:25:13;;;;;;;18.37;5.43;;;16.40;51.00;;;;;;5041645;28;20197;-60
2024/01/25 08:27:39;;;;;;;13.00;4.20;;;16.40;51.20;;;;;;5031234;28;20270;-60
2024/01/25 08:30:05;;;;;;;17.70;3.90;;;16.30;51.30;;;;;;5046074;28;20942;-59
2024/01/25 08:32:31;;;;;;;13.73;3.90;;;16.20;51.60;;;;;;5041278;28;20195;-61
2024/01/25 08:34:56;;;;;;;15.97;3.77;;;16.20;52.00;;;;;;5042802;28;20448;-60
2024/01/25 08:37:22;;;;;;;14.13;3.97;;;16.00;52.30;;;;;;5041227;28;20200;-60
2024/01/25 08:39:49;;;;;;;10.50;3.97;;;15.90;52.70;;;;;;5046298;28;20202;-60
2024/01/25 08:42:17;;;;;;;19.23;4.83;;;15.90;53.10;;;;;;5043235;28;20660;-60
2024/01/25 08:44:48;;;;;;;16.30;4.50;;;15.90;53.40;;;;;;5050272;28;20446;-60
2024/01/25 08:47:17;;;;;;;10.70;3.90;;;16.00;53.60;;;;;;5045893;28;20483;-60
2024/01/25 08:49:43;;;;;;;10.60;3.67;;;16.00;53.40;;;;;;5044240;28;20562;-61
2024/01/25 08:52:09;;;;;;;13.67;4.73;;;16.10;53.30;;;;;;5043940;28;20554;-60
2024/01/25 08:54:36;;;;;;;15.80;5.10;;;16.10;53.20;;;;;;5046934;28;20260;-60
2024/01/25 08:57:03;;;;;;;25.43;5.67;;;16.10;53.10;;;;;;5043928;28;20711;-59
2024/01/25 08:59:30;;;;;;;17.93;6.40;;;16.20;52.90;;;;;;5046821;28;20443;-60
2024/01/25 09:01:56;;;;;;;20.07;6.37;;;16.20;52.90;;;;;;5040756;28;21168;-59
2024/01/25 09:04:22;;;;;;;20.90;6.33;;;16.20;52.70;;;;;;5045619;28;21001;-61
2024/01/25 09:06:47;;;;;;;19.13;5.73;;;16.30;52.60;;;;;;5042706;28;20221;-61
2024/01/25 09:09:13;;;;;;;22.70;6.30;;;16.30;52.80;;;;;;5044821;28;20536;-60
2024/01/25 09:11:38;;;;;;;19.93;5.67;;;16.40;52.80;;;;;;5043699;28;20188;-60
2024/01/25 09:14:04;;;;;;;14.17;3.90;;;16.40;52.80;;;;;;5048660;28;20214;-61
2024/01/25 09:16:30;;;;;;;16.90;4.80;;;16.40;52.60;;;;;;5044137;28;20204;-60
2024/01/25 09:18:55;;;;;;;15.60;4.40;;;16.40;52.60;;;;;;5039379;28;20656;-60
2024/01/25 09:21:21;;;;;;;18.90;7.30;;;16.50;52.60;;;;;;5044539;28;20438;-60
2024/01/25 09:23:47;;;;;;;14.87;6.03;;;16.60;53.00;;;;;;5044841;28;20215;-61
2024/01/25 09:26:12;;;;;;;16.00;6.37;;;16.80;52.20;;;;;;5045986;28;20952;-61
2024/01/25 09:28:38;;;;;;;17.67;4.10;;;16.80;51.80;;;;;;5044184;28;20220;-61
2024/01/25 09:31:04;;;;;;;15.70;5.10;;;16.60;51.80;;;;;;5041173;28;20219;-60
2024/01/25 09:33:29;;;;;;;12.93;3.93;;;16.50;51.90;;;;;;5041444;28;20246;-60
2024/01/25 09:35:55;;;;;;;17.07;4.30;;;16.40;52.20;;;;;;5039221;28;21003;-61
2024/01/25 09:38:21;;;;;;;15.83;4.40;;;16.50;52.30;;;;;;5042330;28;20189;-60
2024/01/25 09:40:48;;;;;;;12.57;4.00;;;16.50;51.90;;;;;;5046328;28;20181;-60
2024/01/25 09:43:14;;;;;;;11.27;3.70;;;16.30;52.00;;;;;;5035456;28;20797;-61
2024/01/25 09:45:41;;;;;;;16.87;4.50;;;16.20;52.00;;;;;;5039441;28;20509;-62
2024/01/25 09:48:07;;;;;;;16.00;3.93;;;16.10;52.00;;;;;;5041309;28;20492;-61
2024/01/25 09:50:33;;;;;;;13.63;4.00;;;16.00;52.10;;;;;;5042330;28;20435;-60
2024/01/25 09:53:00;;;;;;;13.30;3.90;;;16.20;52.10;;;;;;5043269;28;20434;-59
2024/01/25 09:55:26;;;;;;;17.60;4.03;;;16.30;51.80;;;;;;5047113;28;20527;-62
2024/01/25 09:57:56;;;;;;;18.93;4.97;;;16.40;51.40;;;;;;5045416;28;20439;-61
2024/01/25 10:00:22;;;;;;;12.33;4.07;;;16.60;51.80;;;;;;5046904;28;20431;-60
2024/01/25 10:02:49;;;;;;;9.80;4.03;;;16.90;51.20;;;;;;5040598;28;20791;-62
2024/01/25 10:05:15;;;;;;;13.90;3.80;;;16.80;50.50;;;;;;5049781;28;20184;-61
2024/01/25 10:07:43;;;;;;;15.03;4.50;;;16.90;50.40;;;;;;5039640;28;21345;-61
2024/01/25 10:10:09;;;;;;;21.10;4.30;;;17.00;50.10;;;;;;5045159;28;20458;-60
2024/01/25 10:12:36;;;;;;;14.20;3.77;;;16.90;50.20;;;;;;5045526;28;20585;-60
2024/01/25 10:15:04;;;;;;;13.70;4.13;;;16.90;50.50;;;;;;5039898;28;20919;-61
2024/01/25 10:17:30;;;;;;;14.80;3.33;;;16.80;50.80;;;;;;5038765;28;20462;-60
2024/01/25 10:19:56;;;;;;;15.10;3.83;;;16.80;50.80;;;;;;5043087;28;20507;-60
2024/01/25 10:22:21;;;;;;;12.40;3.57;;;16.90;50.80;;;;;;5045047;28;20185;-60
2024/01/25 10:24:50;;;;;;;14.73;4.13;;;16.90;51.10;;;;;;5040762;28;20526;-61
2024/01/25 10:27:16;;;;;;;15.13;2.97;;;17.10;51.10;;;;;;5045459;28;20472;-60
2024/01/25 10:29:42;;;;;;;15.70;4.90;;;17.10;50.60;;;;;;5050337;28;20789;-61
2024/01/25 10:32:09;;;;;;;14.13;3.60;;;17.10;50.40;;;;;;5037928;28;20436;-59
2024/01/25 10:34:38;;;;;;;13.80;4.57;;;17.10;50.60;;;;;;5047932;28;20839;-61
2024/01/25 10:37:06;;;;;;;15.97;5.30;;;17.00;50.60;;;;;;5041183;28;20468;-60
2024/01/25 10:39:32;;;;;;;19.70;4.00;;;17.10;50.60;;;;;;5047218;28;20431;-61
2024/01/25 10:41:59;;;;;;;13.37;4.07;;;16.90;50.90;;;;;;5046457;28;20569;-61
2024/01/25 10:44:25;;;;;;;19.73;4.73;;;17.00;51.10;;;;;;5043122;28;20434;-61
2024/01/25 10:46:50;;;;;;;8.50;3.70;;;17.10;51.20;;;;;;5045135;28;20471;-60
2024/01/25 10:49:17;;;;;;;31.33;5.90;;;17.20;50.90;;;;;;5048881;28;20671;-61
2024/01/25 10:51:44;;;;;;;12.43;4.00;;;17.40;50.50;;;;;;5048043;28;20567;-61
2024/01/25 10:54:14;;;;;;;14.57;3.80;;;17.50;50.00;;;;;;5044420;28;20942;-61
2024/01/25 10:56:43;;;;;;;16.17;4.53;;;17.40;49.10;;;;;;5041331;28;20467;-61
2024/01/25 10:59:10;;;;;;;12.83;4.97;;;17.60;48.80;;;;;;5043066;28;21294;-61
2024/01/25 11:01:36;;;;;;;18.57;4.50;;;17.40;48.40;;;;;;5039577;28;20821;-60
2024/01/25 11:04:02;;;;;;;13.47;3.63;;;17.60;49.10;;;;;;5040361;28;20463;-60
2024/01/25 11:06:28;;;;;;;11.50;3.43;;;17.50;48.70;;;;;;5045169;28;20238;-60
2024/01/25 11:09:06;;;;;;;17.33;4.50;;;17.50;48.50;;;;;;5046342;28;20192;-61
2024/01/25 11:11:32;;;;;;;11.20;2.90;;;17.40;48.00;;;;;;5041111;28;20467;-61
2024/01/25 11:13:59;;;;;;;13.60;3.80;;;17.50;48.10;;;;;;5044154;28;21016;-59
2024/01/25 11:16:34;;;;;;;11.50;4.53;;;17.40;48.00;;;;;;5040053;28;20347;-61
2024/01/25 11:19:05;;;;;;;15.40;4.13;;;17.40;48.30;;;;;;5044407;28;20420;-60
2024/01/25 11:21:41;;;;;;;14.57;4.10;;;17.50;48.20;;;;;;5041056;28;20415;-60
2024/01/25 11:24:16;;;;;;;11.90;3.50;;;17.60;48.10;;;;;;5042256;28;20432;-60
2024/01/25 11:26:45;;;;;;;15.97;3.87;;;17.60;47.50;;;;;;5043837;28;20486;-61
2024/01/25 11:29:16;;;;;;;12.53;3.13;;;17.60;47.60;;;;;;5043956;28;20466;-61
2024/01/25 11:31:45;;;;;;;14.43;3.00;;;17.60;47.90;;;;;;5040812;28;20435;-61
2024/01/25 11:34:12;;;;;;;13.33;3.60;;;17.60;47.60;;;;;;5043595;28;20596;-61
2024/01/25 11:36:38;;;;;;;7.43;2.87;;;17.60;47.90;;;;;;5041564;28;20475;-60
2024/01/25 11:39:06;;;;;;;11.80;3.30;;;17.70;47.60;;;;;;5039719;28;21134;-61
2024/01/25 11:41:32;;;;;;;8.70;3.33;;;17.50;47.30;;;;;;5043737;28;20173;-61
2024/01/25 11:43:57;;;;;;;15.13;3.73;;;17.40;47.40;;;;;;5039325;28;20925;-61
2024/01/25 11:46:24;;;;;;;9.53;3.30;;;17.50;47.30;;;;;;5038842;28;20531;-61
2024/01/25 11:48:50;;;;;;;13.67;5.07;;;17.50;47.50;;;;;;5042655;28;20184;-60
2024/01/25 11:51:16;;;;;;;10.20;3.20;;;17.60;47.80;;;;;;5040629;28;20816;-60
2024/01/25 11:53:41;;;;;;;15.13;4.03;;;17.70;48.10;;;;;;5045931;28;20188;-61
2024/01/25 11:56:10;;;;;;;12.47;3.30;;;17.90;48.10;;;;;;5037483;28;20198;-60
2024/01/25 11:58:37;;;;;;;20.27;3.73;;;17.90;48.10;;;;;;5043362;28;20193;-61
2024/01/25 12:01:05;;;;;;;14.03;4.80;;;18.00;47.90;;;;;;5046087;28;20778;-61
2024/01/25 12:03:32;;;;;;;17.63;3.40;;;18.00;48.00;;;;;;5045532;28;21015;-61
2024/01/25 12:05:59;;;;;;;12.70;3.47;;;18.10;48.00;;;;;;5045682;28;20873;-60
2024/01/25 12:08:26;;;;;;;8.63;2.50;;;18.10;48.20;;;;;;5040287;28;20424;-60
2024/01/25 12:11:03;;;;;;;11.30;3.47;;;18.20;47.90;;;;;;5035791;28;20443;-60
2024/01/25 12:13:32;;;;;;;15.43;5.00;;;18.20;47.40;;;;;;5041469;28;20500;-61
2024/01/25 12:15:57;;;;;;;12.73;3.00;;;17.90;47.10;;;;;;5045143;28;20508;-61
2024/01/25 12:18:23;;;;;;;15.77;3.60;;;18.00;47.10;;;;;;5047454;28;20451;-59
2024/01/25 12:20:50;;;;;;;6.63;2.90;;;18.00;47.30;;;;;;5046871;28;20205;-58
2024/01/25 12:23:15;;;;;;;13.03;3.67;;;18.10;47.60;;;;;;5047757;28;20189;-60
2024/01/25 12:25:41;;;;;;;12.80;3.57;;;18.30;47.20;;;;;;5046034;28;20515;-60
2024/01/25 12:28:06;;;;;;;10.03;3.00;;;18.50;48.00;;;;;;5041852;28;20181;-61
2024/01/25 12:30:32;;;;;;;10.37;2.60;;;18.70;47.10;;;;;;5044540;28;20184;-61
2024/01/25 12:32:57;;;;;;;11.37;3.40;;;18.80;46.00;;;;;;5039309;28;20212;-61